createdAt,value
2023-04-30T00:00:12.788Z,101548.53
2023-04-30T00:02:40.517Z,101547.63
2023-04-30T00:05:08.377Z,101555.47
2023-04-30T00:07:35.955Z,101557.22
2023-04-30T00:10:05.585Z,101551.88
2023-04-30T00:12:33.105Z,101547.50
2023-04-30T00:15:01.690Z,101558.00
2023-04-30T00:17:29.324Z,101558.88
2023-04-30T00:19:57.088Z,101558.00
2023-04-30T00:22:24.753Z,101557.13
2023-04-30T00:24:52.131Z,101558.03
2023-04-30T00:27:19.709Z,101560.72
2023-04-30T00:29:47.124Z,101545.91
2023-04-30T00:32:14.756Z,101551.06
2023-04-30T00:34:42.506Z,101555.38
2023-04-30T00:37:10.163Z,101548.25
2023-04-30T00:39:37.698Z,101546.50
2023-04-30T00:42:05.287Z,101543.88
2023-04-30T00:44:32.704Z,101548.25
2023-04-30T00:47:00.195Z,101542.13
2023-04-30T00:49:27.618Z,101548.25
2023-04-30T00:51:55.422Z,101542.06
2023-04-30T00:54:24.608Z,101533.28
2023-04-30T00:56:52.590Z,101536.81
2023-04-30T00:59:20.177Z,101534.28
2023-04-30T01:01:48.088Z,101527.31
2023-04-30T01:04:15.849Z,101529.25
2023-04-30T01:06:43.662Z,101523.97
2023-04-30T01:09:11.531Z,101525.63
2023-04-30T01:11:50.074Z,101528.91
2023-04-30T01:14:56.226Z,101520.75
2023-04-30T01:17:47.158Z,101521.44
2023-04-30T01:20:15.401Z,101525.81
2023-04-30T01:22:47.278Z,101531.19
2023-04-30T01:25:20.912Z,101523.22
2023-04-30T01:28:20.747Z,101528.44
2023-04-30T01:30:49.277Z,101532.81
2023-04-30T01:33:16.952Z,101525.78
2023-04-30T01:36:03.890Z,101524.84
2023-04-30T01:38:43.586Z,101522.19
2023-04-30T01:41:21.482Z,101522.28
2023-04-30T01:44:19.680Z,101514.47
2023-04-30T01:47:03.549Z,101514.41
2023-04-30T01:49:38.005Z,101507.38
2023-04-30T01:52:35.268Z,101510.72
2023-04-30T01:55:10.450Z,101511.53
2023-04-30T01:57:41.864Z,101518.47
2023-04-30T02:00:11.759Z,101514.97
2023-04-30T02:02:42.554Z,101514.09
2023-04-30T02:05:10.230Z,101514.03
2023-04-30T02:07:42.446Z,101513.97
2023-04-30T02:10:12.047Z,101521.75
2023-04-30T02:12:40.458Z,101519.09
2023-04-30T02:15:09.060Z,101514.78
2023-04-30T02:17:36.560Z,101518.25
2023-04-30T02:20:04.779Z,101512.97
2023-04-30T02:22:32.250Z,101511.22
2023-04-30T02:24:59.817Z,101509.50
2023-04-30T02:27:30.243Z,101516.44
2023-04-30T02:29:58.020Z,101518.22
2023-04-30T02:32:26.097Z,101522.59
2023-04-30T02:34:53.547Z,101528.72
2023-04-30T02:37:21.083Z,101527.94
2023-04-30T02:39:49.221Z,101524.44
2023-04-30T02:42:17.261Z,101518.41
2023-04-30T02:44:45.103Z,101515.94
2023-04-30T02:47:12.701Z,101520.41
2023-04-30T02:49:40.381Z,101519.38
2023-04-30T02:52:10.036Z,101518.56
2023-04-30T02:54:38.111Z,101518.72
2023-04-30T02:57:05.696Z,101517.75
2023-04-30T02:59:33.136Z,101525.50
2023-04-30T03:02:00.976Z,101528.00
2023-04-30T03:04:28.433Z,101523.41
2023-04-30T03:06:55.853Z,101523.31
2023-04-30T03:09:23.840Z,101525.03
2023-04-30T03:11:51.376Z,101520.66
2023-04-30T03:14:18.928Z,101527.63
2023-04-30T03:16:46.427Z,101524.16
2023-04-30T03:19:13.887Z,101520.66
2023-04-30T03:21:41.497Z,101528.56
2023-04-30T03:24:08.871Z,101516.41
2023-04-30T03:26:36.520Z,101521.59
2023-04-30T03:29:04.240Z,101525.97
2023-04-30T03:31:31.776Z,101524.19
2023-04-30T03:33:59.412Z,101532.06
2023-04-30T03:36:27.468Z,101529.50
2023-04-30T03:38:55.042Z,101524.25
2023-04-30T03:41:24.335Z,101519.88
2023-04-30T03:43:51.902Z,101531.19
2023-04-30T03:46:19.651Z,101518.97
2023-04-30T03:48:48.849Z,101521.53
2023-04-30T03:51:21.943Z,101521.44
2023-04-30T03:53:49.458Z,101521.44
2023-04-30T03:56:17.075Z,101523.13
2023-04-30T03:58:45.068Z,101525.72
2023-04-30T04:01:12.462Z,101524.78
2023-04-30T04:03:40.109Z,101519.50
2023-04-30T04:06:08.105Z,101519.50
2023-04-30T04:08:36.820Z,101523.91
2023-04-30T04:11:04.279Z,101523.91
2023-04-30T04:13:31.798Z,101521.28
2023-04-30T04:15:59.630Z,101523.00
2023-04-30T04:18:27.235Z,101519.47
2023-04-30T04:20:56.236Z,101520.34
2023-04-30T04:23:23.757Z,101518.59
2023-04-30T04:25:52.382Z,101519.50
2023-04-30T04:28:21.392Z,101526.50
2023-04-30T04:30:49.446Z,101521.31
2023-04-30T04:33:17.413Z,101525.66
2023-04-30T04:35:46.084Z,101526.56
2023-04-30T04:38:13.690Z,101525.69
2023-04-30T04:40:41.431Z,101524.81
2023-04-30T04:43:09.337Z,101524.00
2023-04-30T04:45:37.854Z,101531.00
2023-04-30T04:48:06.106Z,101521.53
2023-04-30T04:50:33.622Z,101523.41
2023-04-30T04:53:01.101Z,101530.41
2023-04-30T04:55:28.502Z,101533.03
2023-04-30T04:57:55.965Z,101535.72
2023-04-30T05:00:23.636Z,101537.47
2023-04-30T05:02:51.589Z,101534.94
2023-04-30T05:05:19.112Z,101537.59
2023-04-30T05:07:46.791Z,101539.38
2023-04-30T05:10:15.080Z,101537.63
2023-04-30T05:12:42.593Z,101541.09
2023-04-30T05:15:10.521Z,101542.88
2023-04-30T05:17:38.052Z,101544.59
2023-04-30T05:20:07.577Z,101540.25
2023-04-30T05:22:35.100Z,101541.13
2023-04-30T05:25:02.519Z,101542.91
2023-04-30T05:27:30.089Z,101551.69
2023-04-30T05:29:57.718Z,101549.94
2023-04-30T05:32:27.971Z,101556.97
2023-04-30T05:34:55.919Z,101552.59
2023-04-30T05:37:23.336Z,101553.56
2023-04-30T05:39:50.840Z,101553.63
2023-04-30T05:42:18.258Z,101551.13
2023-04-30T05:44:46.264Z,101556.50
2023-04-30T05:47:13.937Z,101557.53
2023-04-30T05:49:41.494Z,101551.66
2023-04-30T05:52:08.923Z,101557.22
2023-04-30T05:54:36.927Z,101559.06
2023-04-30T05:57:04.430Z,101563.44
2023-04-30T05:59:32.552Z,101564.31
2023-04-30T06:01:59.985Z,101565.22
2023-04-30T06:04:27.584Z,101565.22
2023-04-30T06:06:55.021Z,101568.88
2023-04-30T06:09:22.626Z,101574.22
2023-04-30T06:11:50.661Z,101569.91
2023-04-30T06:14:19.132Z,101571.75
2023-04-30T06:16:46.914Z,101570.97
2023-04-30T06:19:14.435Z,101580.56
2023-04-30T06:21:44.026Z,101571.00
2023-04-30T06:24:11.562Z,101571.94
2023-04-30T06:26:39.111Z,101573.69
2023-04-30T06:29:06.676Z,101584.31
2023-04-30T06:31:34.125Z,101586.94
2023-04-30T06:34:01.684Z,101575.56
2023-04-30T06:36:29.179Z,101585.22
2023-04-30T06:38:56.595Z,101585.19
2023-04-30T06:41:24.021Z,101580.72
2023-04-30T06:43:51.524Z,101591.16
2023-04-30T06:46:19.001Z,101586.56
2023-04-30T06:48:46.588Z,101579.47
2023-04-30T06:51:19.659Z,101592.63
2023-04-30T06:53:49.725Z,101590.03
2023-04-30T06:56:17.162Z,101594.41
2023-04-30T06:58:45.263Z,101591.75
2023-04-30T07:01:12.769Z,101600.56
2023-04-30T07:03:42.040Z,101602.44
2023-04-30T07:06:10.564Z,101607.81
2023-04-30T07:08:41.193Z,101603.56
2023-04-30T07:11:08.928Z,101608.06
2023-04-30T07:13:38.578Z,101596.75
2023-04-30T07:16:06.635Z,101598.56
2023-04-30T07:18:34.033Z,101606.47
2023-04-30T07:21:01.947Z,101603.81
2023-04-30T07:23:30.632Z,101612.69
2023-04-30T07:25:58.386Z,101609.13
2023-04-30T07:28:25.899Z,101604.59
2023-04-30T07:30:53.479Z,101601.84
2023-04-30T07:33:20.933Z,101600.91
2023-04-30T07:35:48.603Z,101597.44
2023-04-30T07:38:17.509Z,101600.97
2023-04-30T07:40:45.201Z,101604.53
2023-04-30T07:43:12.630Z,101606.31
2023-04-30T07:45:40.349Z,101601.94
2023-04-30T07:48:08.006Z,101616.03
2023-04-30T07:50:35.674Z,101607.28
2023-04-30T07:53:03.416Z,101613.50
2023-04-30T07:55:31.186Z,101608.19
2023-04-30T07:57:59.679Z,101617.00
2023-04-30T08:00:27.277Z,101608.22
2023-04-30T08:02:54.890Z,101604.72
2023-04-30T08:05:22.824Z,101603.78
2023-04-30T08:07:50.459Z,101595.88
2023-04-30T08:10:18.070Z,101603.78
2023-04-30T08:12:45.668Z,101595.81
2023-04-30T08:15:13.473Z,101600.09
2023-04-30T08:17:41.120Z,101594.69
2023-04-30T08:20:09.599Z,101597.97
2023-04-30T08:22:37.046Z,101592.47
2023-04-30T08:25:04.819Z,101596.78
2023-04-30T08:27:32.602Z,101598.47
2023-04-30T08:30:00.016Z,101595.00
2023-04-30T08:32:28.377Z,101600.34
2023-04-30T08:34:56.470Z,101595.97
2023-04-30T08:37:24.101Z,101594.22
2023-04-30T08:39:51.940Z,101589.88
2023-04-30T08:42:25.246Z,101596.94
2023-04-30T08:44:52.841Z,101597.81
2023-04-30T08:47:21.689Z,101584.50
2023-04-30T08:49:49.371Z,101588.72
2023-04-30T08:52:17.258Z,101584.91
2023-04-30T08:54:45.049Z,101588.25
2023-04-30T08:57:12.705Z,101587.75
2023-04-30T08:59:40.645Z,101585.28
2023-04-30T09:02:10.147Z,101586.66
2023-04-30T09:04:37.967Z,101581.97
2023-04-30T09:07:08.888Z,101582.56
2023-04-30T09:09:40.903Z,101577.56
2023-04-30T09:12:16.896Z,101574.19
2023-04-30T09:15:06.268Z,101579.16
2023-04-30T09:17:36.133Z,101578.94
2023-04-30T09:20:08.534Z,101580.59
2023-04-30T09:22:37.541Z,101584.94
2023-04-30T09:25:06.860Z,101585.84
2023-04-30T09:27:34.508Z,101592.31
2023-04-30T09:30:02.009Z,101587.28
2023-04-30T09:32:29.628Z,101585.72
2023-04-30T09:34:57.143Z,101582.91
2023-04-30T09:37:38.132Z,101593.28
2023-04-30T09:40:06.293Z,101599.09
2023-04-30T09:42:33.749Z,101595.94
2023-04-30T09:45:01.334Z,101587.31
2023-04-30T09:47:32.024Z,101591.00
2023-04-30T09:50:00.667Z,101587.41
2023-04-30T09:52:28.233Z,101592.63
2023-04-30T09:54:55.817Z,101590.78
2023-04-30T09:57:24.759Z,101595.19
2023-04-30T09:59:54.127Z,101603.94
2023-04-30T10:02:24.084Z,101604.03
2023-04-30T10:04:58.426Z,101602.31
2023-04-30T10:07:33.258Z,101604.28
2023-04-30T10:10:11.158Z,101598.34
2023-04-30T10:12:51.479Z,101606.63
2023-04-30T10:15:40.572Z,101605.06
2023-04-30T10:18:18.353Z,101599.00
2023-04-30T10:20:49.152Z,101596.34
2023-04-30T10:23:17.525Z,101602.59
2023-04-30T10:25:45.757Z,101587.56
2023-04-30T10:28:13.445Z,101584.03
2023-04-30T10:30:44.307Z,101587.53
2023-04-30T10:33:29.378Z,101591.88
2023-04-30T10:36:02.673Z,101589.97
2023-04-30T10:38:32.687Z,101584.59
2023-04-30T10:41:01.487Z,101577.28
2023-04-30T10:43:33.229Z,101584.81
2023-04-30T10:46:00.991Z,101584.53
2023-04-30T10:48:31.193Z,101582.69
2023-04-30T10:50:59.863Z,101589.47
2023-04-30T10:53:31.553Z,101589.84
2023-04-30T10:56:11.225Z,101583.13
2023-04-30T10:58:40.285Z,101575.44
2023-04-30T11:01:15.953Z,101586.91
2023-04-30T11:04:10.454Z,101581.63
2023-04-30T11:06:55.971Z,101579.72
2023-04-30T11:09:36.600Z,101576.63
2023-04-30T11:12:09.930Z,101579.88
2023-04-30T11:14:41.997Z,101579.00
2023-04-30T11:17:15.063Z,101581.75
2023-04-30T11:19:48.231Z,101567.47
2023-04-30T11:22:17.186Z,101571.31
2023-04-30T11:25:00.135Z,101578.84
2023-04-30T11:27:29.697Z,101568.50
2023-04-30T11:29:58.996Z,101578.56
2023-04-30T11:32:35.933Z,101574.53
2023-04-30T11:35:05.051Z,101571.91
2023-04-30T11:37:37.990Z,101583.50
2023-04-30T11:40:07.961Z,101575.63
2023-04-30T11:42:35.681Z,101577.63
2023-04-30T11:45:11.558Z,101569.19
2023-04-30T11:47:49.117Z,101575.63
2023-04-30T11:50:19.496Z,101568.91
2023-04-30T11:52:51.495Z,101572.81
2023-04-30T11:55:21.383Z,101571.38
2023-04-30T11:57:50.913Z,101574.13
2023-04-30T12:00:20.398Z,101571.78
2023-04-30T12:02:50.021Z,101570.19
2023-04-30T12:05:20.259Z,101567.66
2023-04-30T12:07:57.365Z,101561.81
2023-04-30T12:10:25.972Z,101562.13
2023-04-30T12:12:54.869Z,101566.72
2023-04-30T12:15:27.113Z,101567.69
2023-04-30T12:17:56.770Z,101567.72
2023-04-30T12:20:29.262Z,101562.38
2023-04-30T12:22:58.641Z,101569.44
2023-04-30T12:25:29.040Z,101563.25
2023-04-30T12:27:59.531Z,101564.16
2023-04-30T12:30:27.789Z,101559.75
2023-04-30T12:32:59.054Z,101563.28
2023-04-30T12:35:29.540Z,101551.78
2023-04-30T12:38:05.277Z,101558.84
2023-04-30T12:40:33.182Z,101549.16
2023-04-30T12:43:06.447Z,101552.72
2023-04-30T12:45:44.418Z,101545.75
2023-04-30T12:48:19.719Z,101553.53
2023-04-30T12:51:01.576Z,101554.41
2023-04-30T12:53:30.095Z,101554.34
2023-04-30T12:56:10.894Z,101551.53
2023-04-30T12:58:39.350Z,101550.53
2023-04-30T13:01:12.234Z,101553.09
2023-04-30T13:03:40.081Z,101550.34
2023-04-30T13:06:07.648Z,101551.91
2023-04-30T13:08:45.561Z,101550.81
2023-04-30T13:11:23.041Z,101547.72
2023-04-30T13:13:50.485Z,101544.75
2023-04-30T13:16:18.028Z,101544.69
2023-04-30T13:18:45.778Z,101542.59
2023-04-30T13:21:13.279Z,101545.25
2023-04-30T13:23:51.102Z,101545.34
2023-04-30T13:26:20.614Z,101543.59
2023-04-30T13:28:48.057Z,101551.31
2023-04-30T13:31:15.981Z,101542.44
2023-04-30T13:33:44.046Z,101540.75
2023-04-30T13:36:11.976Z,101531.06
2023-04-30T13:38:39.710Z,101528.34
2023-04-30T13:41:07.706Z,101527.06
2023-04-30T13:43:35.260Z,101522.66
2023-04-30T13:46:03.382Z,101529.56
2023-04-30T13:48:31.104Z,101524.09
2023-04-30T13:50:58.875Z,101512.38
2023-04-30T13:53:26.488Z,101519.66
2023-04-30T13:55:54.631Z,101513.69
2023-04-30T13:58:22.163Z,101512.78
2023-04-30T14:00:49.912Z,101509.31
2023-04-30T14:03:19.235Z,101503.44
2023-04-30T14:05:47.040Z,101507.63
2023-04-30T14:08:14.477Z,101501.06
2023-04-30T14:10:42.497Z,101508.47
2023-04-30T14:13:09.969Z,101503.66
2023-04-30T14:15:38.714Z,101509.22
2023-04-30T14:18:06.329Z,101511.69
2023-04-30T14:20:33.836Z,101500.66
2023-04-30T14:23:02.745Z,101499.97
2023-04-30T14:25:30.451Z,101504.31
2023-04-30T14:27:57.893Z,101494.50
2023-04-30T14:30:25.777Z,101487.66
2023-04-30T14:32:53.233Z,101494.25
2023-04-30T14:35:20.907Z,101490.00
2023-04-30T14:37:48.402Z,101489.19
2023-04-30T14:40:16.017Z,101489.72
2023-04-30T14:42:43.804Z,101485.00
2023-04-30T14:45:11.479Z,101484.09
2023-04-30T14:47:39.088Z,101479.03
2023-04-30T14:50:06.871Z,101468.63
2023-04-30T14:52:34.214Z,101470.41
2023-04-30T14:55:01.793Z,101464.25
2023-04-30T14:57:29.840Z,101468.66
2023-04-30T14:59:59.581Z,101469.50
2023-04-30T15:02:27.139Z,101463.28
2023-04-30T15:04:54.753Z,101459.78
2023-04-30T15:07:22.450Z,101456.09
2023-04-30T15:09:50.084Z,101457.84
2023-04-30T15:12:17.563Z,101450.78
2023-04-30T15:14:45.171Z,101448.28
2023-04-30T15:17:12.628Z,101445.03
2023-04-30T15:19:40.301Z,101447.00
2023-04-30T15:22:08.118Z,101444.69
2023-04-30T15:24:36.367Z,101446.75
2023-04-30T15:27:04.472Z,101451.59
2023-04-30T15:29:32.166Z,101444.75
2023-04-30T15:31:59.808Z,101441.25
2023-04-30T15:34:27.478Z,101444.84
2023-04-30T15:36:58.902Z,101441.47
2023-04-30T15:39:26.992Z,101452.97
2023-04-30T15:41:54.546Z,101451.22
2023-04-30T15:44:22.178Z,101449.44
2023-04-30T15:46:50.002Z,101450.44
2023-04-30T15:49:17.611Z,101449.56
2023-04-30T15:51:45.639Z,101456.56
2023-04-30T15:54:14.128Z,101448.72
2023-04-30T15:56:41.727Z,101460.06
2023-04-30T15:59:09.303Z,101457.41
2023-04-30T16:01:36.900Z,101449.47
2023-04-30T16:04:04.649Z,101450.44
2023-04-30T16:06:32.859Z,101441.75
2023-04-30T16:09:02.096Z,101446.31
2023-04-30T16:11:30.356Z,101454.28
2023-04-30T16:13:57.779Z,101451.69
2023-04-30T16:16:28.010Z,101451.63
2023-04-30T16:18:55.722Z,101452.59
2023-04-30T16:21:23.962Z,101453.50
2023-04-30T16:23:51.420Z,101452.59
2023-04-30T16:26:18.890Z,101447.28
2023-04-30T16:28:47.488Z,101452.59
2023-04-30T16:31:15.744Z,101458.69
2023-04-30T16:33:43.561Z,101455.19
2023-04-30T16:36:11.183Z,101459.53
2023-04-30T16:38:40.400Z,101457.91
2023-04-30T16:41:08.008Z,101465.84
2023-04-30T16:43:35.636Z,101470.19
2023-04-30T16:46:03.246Z,101465.75
2023-04-30T16:48:30.878Z,101467.50
2023-04-30T16:50:58.440Z,101465.91
2023-04-30T16:53:25.943Z,101466.00
2023-04-30T16:55:53.408Z,101465.16
2023-04-30T16:58:21.029Z,101473.06
2023-04-30T17:00:49.951Z,101466.97
2023-04-30T17:03:17.648Z,101462.63
2023-04-30T17:05:45.210Z,101473.09
2023-04-30T17:08:12.737Z,101471.41
2023-04-30T17:10:40.442Z,101473.25
2023-04-30T17:13:09.031Z,101478.53
2023-04-30T17:15:36.514Z,101480.34
2023-04-30T17:18:06.559Z,101472.59
2023-04-30T17:20:34.290Z,101469.97
2023-04-30T17:23:02.205Z,101467.34
2023-04-30T17:25:31.906Z,101475.31
2023-04-30T17:28:01.618Z,101464.81
2023-04-30T17:30:29.251Z,101464.00
2023-04-30T17:32:56.899Z,101467.41
2023-04-30T17:35:24.410Z,101469.22
2023-04-30T17:37:51.901Z,101476.19
2023-04-30T17:40:19.309Z,101470.03
2023-04-30T17:42:47.650Z,101464.75
2023-04-30T17:45:15.454Z,101463.88
2023-04-30T17:47:43.038Z,101463.88
2023-04-30T17:50:11.746Z,101463.81
2023-04-30T17:52:39.449Z,101456.69
2023-04-30T17:55:08.480Z,101461.03
2023-04-30T17:57:37.039Z,101466.16
2023-04-30T18:00:05.500Z,101460.91
2023-04-30T18:02:40.730Z,101464.44
2023-04-30T18:05:09.139Z,101466.19
2023-04-30T18:07:36.657Z,101463.66
2023-04-30T18:10:04.453Z,101462.81
2023-04-30T18:12:32.206Z,101464.69
2023-04-30T18:15:00.056Z,101462.13
2023-04-30T18:17:27.506Z,101461.38
2023-04-30T18:19:55.198Z,101459.59
2023-04-30T18:22:22.805Z,101462.28
2023-04-30T18:24:52.753Z,101469.38
2023-04-30T18:27:20.794Z,101469.41
2023-04-30T18:29:49.724Z,101471.22
2023-04-30T18:32:17.622Z,101474.78
2023-04-30T18:34:45.150Z,101474.78
2023-04-30T18:37:12.660Z,101473.19
2023-04-30T18:39:40.231Z,101484.72
2023-04-30T18:42:09.533Z,101488.44
2023-04-30T18:44:37.029Z,101485.00
2023-04-30T18:47:06.500Z,101491.13
2023-04-30T18:49:34.016Z,101498.22
2023-04-30T18:52:01.554Z,101501.81
2023-04-30T18:54:29.257Z,101509.75
2023-04-30T18:56:56.740Z,101515.03
2023-04-30T18:59:24.333Z,101509.78
2023-04-30T19:01:51.784Z,101516.81
2023-04-30T19:04:19.362Z,101521.28
2023-04-30T19:06:49.757Z,101524.00
2023-04-30T19:09:17.685Z,101517.88
2023-04-30T19:11:45.308Z,101521.38
2023-04-30T19:14:13.350Z,101524.88
2023-04-30T19:16:41.172Z,101524.91
2023-04-30T19:19:08.754Z,101524.84
2023-04-30T19:21:36.632Z,101532.75
2023-04-30T19:24:06.878Z,101527.50
2023-04-30T19:26:36.058Z,101532.72
2023-04-30T19:29:03.831Z,101536.22
2023-04-30T19:31:31.419Z,101538.88
2023-04-30T19:34:01.274Z,101547.59
2023-04-30T19:36:28.786Z,101551.09
2023-04-30T19:38:56.563Z,101562.47
2023-04-30T19:41:24.175Z,101571.25
2023-04-30T19:43:53.530Z,101565.13
2023-04-30T19:46:21.281Z,101573.00
2023-04-30T19:48:50.350Z,101573.91
2023-04-30T19:51:17.877Z,101573.03
2023-04-30T19:53:45.753Z,101571.25
2023-04-30T19:56:13.182Z,101581.69
2023-04-30T19:58:40.801Z,101576.41
2023-04-30T20:01:08.425Z,101578.97
2023-04-30T20:03:36.597Z,101575.44
2023-04-30T20:06:04.730Z,101578.88
2023-04-30T20:08:32.302Z,101575.44
2023-04-30T20:11:01.188Z,101574.59
2023-04-30T20:13:29.570Z,101578.06
2023-04-30T20:15:57.745Z,101591.19
2023-04-30T20:18:25.242Z,101595.50
2023-04-30T20:20:52.756Z,101595.59
2023-04-30T20:23:20.740Z,101599.13
2023-04-30T20:25:50.295Z,101608.75
2023-04-30T20:28:18.400Z,101613.09
2023-04-30T20:30:48.124Z,101608.75
2023-04-30T20:33:15.914Z,101604.28
2023-04-30T20:35:47.290Z,101603.19
2023-04-30T20:38:19.591Z,101609.34
2023-04-30T20:40:47.648Z,101610.13
2023-04-30T20:43:17.240Z,101605.69
2023-04-30T20:45:45.396Z,101606.72
2023-04-30T20:48:12.907Z,101615.44
2023-04-30T20:50:41.392Z,101623.16
2023-04-30T20:53:11.057Z,101619.66
2023-04-30T20:55:39.110Z,101615.31
2023-04-30T20:58:08.002Z,101613.53
2023-04-30T21:00:35.500Z,101620.47
2023-04-30T21:03:03.063Z,101610.03
2023-04-30T21:05:30.728Z,101613.53
2023-04-30T21:08:01.583Z,101608.31
2023-04-30T21:10:36.176Z,101608.28
2023-04-30T21:13:05.968Z,101601.28
2023-04-30T21:15:35.786Z,101599.41
2023-04-30T21:18:03.604Z,101598.44
2023-04-30T21:20:31.797Z,101601.94
2023-04-30T21:22:59.744Z,101599.34
2023-04-30T21:25:27.423Z,101596.69
2023-04-30T21:27:55.513Z,101604.72
2023-04-30T21:30:25.578Z,101592.53
2023-04-30T21:32:58.710Z,101598.56
2023-04-30T21:35:27.950Z,101592.44
2023-04-30T21:37:55.877Z,101590.75
2023-04-30T21:40:23.352Z,101595.16
2023-04-30T21:42:52.084Z,101598.53
2023-04-30T21:45:19.902Z,101595.75
2023-04-30T21:47:48.718Z,101598.38
2023-04-30T21:50:17.108Z,101594.03
2023-04-30T21:52:44.562Z,101602.66
2023-04-30T21:55:12.498Z,101593.97
2023-04-30T21:57:39.925Z,101603.59
2023-04-30T22:00:08.733Z,101593.91
2023-04-30T22:02:37.141Z,101598.38
2023-04-30T22:05:06.553Z,101605.38
2023-04-30T22:07:33.935Z,101601.06
2023-04-30T22:10:03.037Z,101601.91
2023-04-30T22:12:30.593Z,101592.25
2023-04-30T22:14:58.725Z,101596.69
2023-04-30T22:17:26.575Z,101602.78
2023-04-30T22:19:54.542Z,101601.06
2023-04-30T22:22:22.070Z,101599.28
2023-04-30T22:24:49.963Z,101599.31
2023-04-30T22:27:17.708Z,101595.84
2023-04-30T22:29:48.624Z,101593.34
2023-04-30T22:32:17.051Z,101594.28
2023-04-30T22:34:44.440Z,101590.72
2023-04-30T22:37:12.087Z,101589.00
2023-04-30T22:39:39.588Z,101588.25
2023-04-30T22:42:09.465Z,101577.72
2023-04-30T22:44:37.749Z,101571.50
2023-04-30T22:47:06.058Z,101566.09
2023-04-30T22:49:34.817Z,101574.91
2023-04-30T22:52:02.541Z,101571.28
2023-04-30T22:54:30.551Z,101570.41
2023-04-30T22:56:58.546Z,101573.06
2023-04-30T22:59:26.043Z,101580.91
2023-04-30T23:01:53.550Z,101574.72
2023-04-30T23:04:21.201Z,101578.28
2023-04-30T23:06:48.879Z,101580.84
2023-04-30T23:09:16.398Z,101575.59
2023-04-30T23:11:44.922Z,101578.13
2023-04-30T23:14:12.354Z,101572.06
2023-04-30T23:16:42.760Z,101573.75
2023-04-30T23:19:10.790Z,101575.50
2023-04-30T23:21:38.655Z,101573.78
2023-04-30T23:24:06.212Z,101567.75
2023-04-30T23:26:33.756Z,101566.84
2023-04-30T23:29:01.726Z,101566.78
2023-04-30T23:31:29.337Z,101567.66
2023-04-30T23:33:56.828Z,101561.53
2023-04-30T23:36:24.515Z,101568.59
2023-04-30T23:38:51.976Z,101574.75
2023-04-30T23:41:19.580Z,101576.47
2023-04-30T23:43:47.092Z,101572.09
2023-04-30T23:46:16.127Z,101576.47
2023-04-30T23:48:43.668Z,101579.97
2023-04-30T23:51:11.409Z,101576.56
2023-04-30T23:53:39.597Z,101585.28
2023-04-30T23:56:08.554Z,101581.78
2023-04-30T23:58:35.957Z,101580.00
